Time;durP1;ratioP1;P1;durP2;ratioP2;P2;SDS_P1;SDS_P2;PMS_P1;PMS_P2;Temp;Humidity;BMP_temperature;BMP_pressure;BME280_temperature;BME280_humidity;BME280_pressure;Samples;Min_cycle;Max_cycle;Signal;HPM_P1;HPM_P2
2021/12/31 00:00:11;;;;;;;36.42;18.60;;;;;;;3.83;91.64;98190.65;1775341;81;20958;-74
2021/12/31 00:02:39;;;;;;;37.98;20.32;;;;;;;3.83;91.37;98191.96;1780167;80;20978;-73
2021/12/31 00:05:08;;;;;;;36.75;19.37;;;;;;;3.78;90.83;98196.33;1780176;81;21433;-73
2021/12/31 00:07:34;;;;;;;40.03;20.08;;;;;;;3.73;90.77;98202.00;1760782;80;21005;-74
2021/12/31 00:10:01;;;;;;;39.78;20.00;;;;;;;3.67;90.81;98209.44;1749683;82;21029;-74
2021/12/31 00:12:30;;;;;;;37.00;19.90;;;;;;;3.64;91.04;98197.63;1749680;82;20999;-73
2021/12/31 00:14:57;;;;;;;40.10;20.57;;;;;;;3.63;91.06;98189.76;1749663;81;21016;-74
2021/12/31 00:17:24;;;;;;;39.78;20.92;;;;;;;3.59;90.78;98198.06;1749876;82;20989;-73
2021/12/31 00:20:00;;;;;;;38.53;20.48;;;;;;;3.57;90.70;98199.78;1749795;82;21585;-74
2021/12/31 00:24:49;;;;;;;39.95;21.65;;;;;;;3.53;90.76;98203.30;1780911;79;21018;-73
2021/12/31 00:27:15;;;;;;;43.58;21.82;;;;;;;3.51;90.79;98201.09;1783490;80;20975;-74
2021/12/31 00:29:41;;;;;;;40.17;21.75;;;;;;;3.50;90.75;98201.97;1758715;80;21052;-73
2021/12/31 00:32:08;;;;;;;41.42;21.70;;;;;;;3.49;90.81;98190.60;1744458;82;21068;-73
2021/12/31 00:34:34;;;;;;;42.38;21.52;;;;;;;3.48;90.87;98207.66;1755097;81;20992;-74
2021/12/31 00:37:01;;;;;;;41.13;21.57;;;;;;;3.49;90.86;98205.02;1776122;81;20997;-73
2021/12/31 00:39:27;;;;;;;40.83;22.02;;;;;;;3.48;90.75;98205.03;1777455;81;21089;-74
2021/12/31 00:41:54;;;;;;;40.85;22.00;;;;;;;3.46;90.38;98208.95;1780624;80;20985;-73
2021/12/31 00:44:20;;;;;;;40.52;21.48;;;;;;;3.42;90.66;98200.64;1780468;80;21387;-74
2021/12/31 00:46:47;;;;;;;38.05;19.98;;;;;;;3.42;90.64;98208.50;1780593;80;21029;-73
2021/12/31 00:49:14;;;;;;;42.10;21.52;;;;;;;3.42;90.58;98209.81;1758284;81;20971;-74
2021/12/31 00:51:41;;;;;;;42.65;22.50;;;;;;;3.42;90.62;98200.64;1750009;82;21017;-74
2021/12/31 00:54:08;;;;;;;51.45;22.55;;;;;;;3.41;90.77;98202.37;1749911;81;21798;-74
2021/12/31 00:56:34;;;;;;;47.95;23.80;;;;;;;3.42;90.81;98198.02;1749627;82;21012;-73
2021/12/31 00:59:00;;;;;;;53.40;26.75;;;;;;;3.43;90.94;98193.22;1748603;82;21538;-74
2021/12/31 01:01:30;;;;;;;49.55;24.95;;;;;;;3.43;90.88;98195.41;1701849;83;21001;-73
2021/12/31 01:03:55;;;;;;;43.25;22.45;;;;;;;3.45;90.87;98191.49;1701774;84;21028;-74
2021/12/31 01:06:22;;;;;;;38.65;20.37;;;;;;;3.47;90.81;98196.70;1681771;84;21025;-74
2021/12/31 01:08:49;;;;;;;40.95;22.00;;;;;;;3.48;90.78;98199.80;1701573;84;21463;-73
2021/12/31 01:11:15;;;;;;;51.15;23.57;;;;;;;3.47;91.08;98192.36;1701885;83;21049;-73
2021/12/31 01:13:58;;;;;;;48.80;23.30;;;;;;;3.46;91.04;98199.78;1701814;84;21409;-74
2021/12/31 01:16:25;;;;;;;47.23;21.93;;;;;;;3.46;91.00;98189.30;1722805;82;20978;-73
2021/12/31 01:21:21;;;;;;;41.80;21.52;;;;;;;3.47;91.07;98202.84;1701787;83;20954;-73
2021/12/31 01:23:50;;;;;;;43.63;23.70;;;;;;;3.48;91.07;98198.48;1701617;83;21075;-73
2021/12/31 01:26:18;;;;;;;41.60;21.85;;;;;;;3.46;91.45;98199.78;1715624;81;21000;-73
2021/12/31 01:28:46;;;;;;;47.95;23.32;;;;;;;3.43;91.40;98197.14;1732761;83;21045;-73
2021/12/31 01:31:12;;;;;;;44.60;22.02;;;;;;;3.43;91.00;98195.41;1729298;82;21077;-73
2021/12/31 01:33:38;;;;;;;44.42;22.37;;;;;;;3.43;90.93;98195.41;1701833;84;21037;-73
2021/12/31 01:36:06;;;;;;;41.02;20.92;;;;;;;3.48;90.88;98202.41;1701662;84;20966;-73
2021/12/31 01:38:34;;;;;;;45.17;22.48;;;;;;;3.51;91.02;98191.50;1701474;84;21006;-73
2021/12/31 01:41:01;;;;;;;49.55;23.55;;;;;;;3.57;91.15;98186.68;1701883;84;21005;-73
2021/12/31 01:43:27;;;;;;;48.78;23.73;;;;;;;3.61;91.19;98191.06;1703058;83;20970;-74
2021/12/31 01:45:59;;;;;;;48.95;23.52;;;;;;;3.64;91.24;98184.95;1702171;83;21010;-73
2021/12/31 01:48:36;;;;;;;62.20;25.25;;;;;;;3.73;91.63;98178.86;1701432;84;21345;-73
2021/12/31 01:51:03;;;;;;;60.38;24.65;;;;;;;3.81;91.66;98176.67;1701609;84;21014;-73
2021/12/31 01:53:31;;;;;;;54.60;24.55;;;;;;;3.86;91.42;98166.63;1701805;84;20958;-72
2021/12/31 01:56:00;;;;;;;52.08;23.60;;;;;;;3.88;91.46;98175.36;1701752;83;20966;-73
2021/12/31 01:58:28;;;;;;;54.13;22.45;;;;;;;3.92;91.74;98180.63;1718918;83;21001;-74
2021/12/31 02:00:55;;;;;;;47.00;21.97;;;;;;;3.98;91.94;98177.11;1757580;80;21018;-74
2021/12/31 02:03:24;;;;;;;51.85;23.35;;;;;;;4.06;91.94;98165.30;1769693;80;21088;-74
2021/12/31 02:05:50;;;;;;;42.13;20.62;;;;;;;4.13;91.97;98164.86;1769483;81;21068;-74
2021/12/31 02:08:18;;;;;;;50.48;23.35;;;;;;;4.11;91.61;98157.45;1769588;81;20998;-72
2021/12/31 02:10:50;;;;;;;48.00;21.60;;;;;;;4.11;91.94;98150.43;1767855;81;21029;-73
2021/12/31 02:13:19;;;;;;;44.13;20.85;;;;;;;4.11;91.69;98155.67;1717988;82;21081;-75
2021/12/31 02:15:46;;;;;;;51.58;23.45;;;;;;;4.13;91.75;98154.37;1755101;81;21384;-72
2021/12/31 02:18:13;;;;;;;58.78;24.98;;;;;;;4.13;91.62;98160.50;1745319;81;20966;-74
2021/12/31 02:20:48;;;;;;;55.45;24.37;;;;;;;4.11;91.46;98158.76;1743583;81;21045;-72
2021/12/31 02:23:27;;;;;;;66.20;24.85;;;;;;;4.06;91.21;98153.07;1766273;80;21518;-72
2021/12/31 02:25:54;;;;;;;62.38;25.75;;;;;;;4.04;91.47;98147.39;1761312;79;21405;-74
2021/12/31 02:28:20;;;;;;;63.50;24.87;;;;;;;4.00;91.36;98131.22;1774909;81;21027;-73
2021/12/31 02:30:50;;;;;;;60.55;25.43;;;;;;;3.96;91.35;98136.91;1751430;80;21406;-72
2021/12/31 02:33:16;;;;;;;59.83;24.05;;;;;;;3.93;91.45;98127.30;1752714;81;21473;-73
2021/12/31 02:35:45;;;;;;;63.08;25.43;;;;;;;3.89;91.27;98123.35;1769463;81;20976;-73
2021/12/31 02:38:11;;;;;;;57.90;25.35;;;;;;;3.87;91.43;98118.56;1769413;81;21424;-73
2021/12/31 02:40:39;;;;;;;50.08;24.82;;;;;;;3.82;91.25;98122.51;1768708;81;21814;-73
2021/12/31 02:43:06;;;;;;;51.73;24.87;;;;;;;3.77;91.08;98121.18;1747945;81;21041;-73
2021/12/31 02:45:36;;;;;;;53.33;25.97;;;;;;;3.73;90.97;98118.58;1769475;80;20954;-73
2021/12/31 02:48:04;;;;;;;47.80;23.80;;;;;;;3.69;90.91;98118.98;1748095;81;20978;-73
2021/12/31 02:50:38;;;;;;;50.75;25.05;;;;;;;3.63;90.95;98117.26;1738939;82;20977;-72
2021/12/31 02:53:12;;;;;;;45.00;23.80;;;;;;;3.61;91.05;98118.13;1739405;82;21447;-73
2021/12/31 02:55:43;;;;;;;48.00;24.82;;;;;;;3.59;90.93;98119.86;1739302;82;21112;-73
2021/12/31 02:58:10;;;;;;;48.55;24.47;;;;;;;3.54;91.02;98120.73;1739185;82;21006;-72
2021/12/31 03:00:41;;;;;;;46.37;24.85;;;;;;;3.54;91.37;98130.35;1739411;81;21093;-73
2021/12/31 03:03:09;;;;;;;54.55;25.30;;;;;;;3.52;91.21;98136.89;1739521;81;21498;-73
2021/12/31 03:05:38;;;;;;;53.52;25.12;;;;;;;3.51;91.41;98131.65;1739157;82;21418;-72
2021/12/31 03:08:10;;;;;;;57.73;26.07;;;;;;;3.51;91.24;98135.16;1739173;82;20998;-72
2021/12/31 03:10:37;;;;;;;56.08;25.95;;;;;;;3.50;91.28;98143.01;1738890;82;21108;-72
2021/12/31 03:13:07;;;;;;;54.98;25.35;;;;;;;3.47;91.05;98145.19;1739094;82;21041;-73
2021/12/31 03:15:33;;;;;;;52.53;25.23;;;;;;;3.47;91.35;98149.13;1764685;81;21009;-73
2021/12/31 03:18:03;;;;;;;54.75;26.35;;;;;;;3.45;91.39;98149.56;1769358;81;20990;-73
2021/12/31 03:20:40;;;;;;;54.05;24.70;;;;;;;3.45;91.60;98149.56;1769529;81;20974;-73
2021/12/31 03:22:57;;;;;;;51.53;24.80;;;;;;;3.45;91.79;98145.64;1757480;81;21049;-73
2021/12/31 03:25:23;;;;;;;56.42;26.10;;;;;;;3.46;91.91;98142.14;1784981;79;20980;-73
2021/12/31 03:27:49;;;;;;;60.33;26.50;;;;;;;3.45;91.94;98144.33;1796060;79;20978;-73
2021/12/31 03:30:17;;;;;;;68.00;27.85;;;;;;;3.43;92.00;98148.25;1769398;81;20982;-73
2021/12/31 03:32:44;;;;;;;64.17;26.35;;;;;;;3.43;91.77;98143.01;1769289;81;21002;-73
2021/12/31 03:35:10;;;;;;;62.33;28.38;;;;;;;3.42;91.81;98139.95;1768638;81;21414;-73
2021/12/31 03:37:37;;;;;;;64.95;29.48;;;;;;;3.44;91.72;98145.17;1739071;82;21054;-73
2021/12/31 03:40:05;;;;;;;66.05;28.52;;;;;;;3.43;91.66;98141.70;1738205;82;21447;-73
2021/12/31 03:42:32;;;;;;;62.27;29.63;;;;;;;3.42;91.72;98128.17;1756575;81;21006;-73
2021/12/31 03:44:59;;;;;;;60.35;27.87;;;;;;;3.47;91.37;98129.89;1769786;80;21032;-73
2021/12/31 03:47:25;;;;;;;68.35;29.60;;;;;;;3.49;91.75;98123.78;1769503;81;21072;-73
2021/12/31 03:49:52;;;;;;;61.83;28.30;;;;;;;3.54;91.86;98123.34;1769181;81;21005;-73
2021/12/31 03:52:18;;;;;;;63.70;29.85;;;;;;;3.59;92.08;98125.98;1769340;81;20989;-73
2021/12/31 03:54:44;;;;;;;64.77;31.12;;;;;;;3.65;92.10;98123.36;1769338;81;21405;-73
2021/12/31 03:57:11;;;;;;;64.22;29.10;;;;;;;3.70;92.35;98116.83;1739230;81;21021;-73
2021/12/31 03:59:37;;;;;;;62.10;29.23;;;;;;;3.74;92.22;98114.61;1739138;82;21005;-74
2021/12/31 04:02:04;;;;;;;57.38;25.65;;;;;;;3.75;92.24;98115.50;1744094;82;21060;-73
2021/12/31 04:04:32;;;;;;;58.15;26.20;;;;;;;3.79;92.62;98107.62;1761405;81;21033;-73
2021/12/31 04:06:58;;;;;;;58.17;26.42;;;;;;;3.85;92.78;98113.31;1774925;81;21435;-74
2021/12/31 04:09:25;;;;;;;61.65;27.27;;;;;;;3.87;92.53;98110.27;1765859;80;21502;-74
2021/12/31 04:11:51;;;;;;;55.00;24.67;;;;;;;3.90;92.94;98114.64;1739873;82;21025;-75
2021/12/31 04:14:18;;;;;;;56.23;26.30;;;;;;;3.93;92.71;98107.62;1734019;83;21009;-75
2021/12/31 04:16:44;;;;;;;60.35;28.12;;;;;;;3.93;92.99;98106.75;1734215;82;21013;-74
2021/12/31 04:19:10;;;;;;;62.25;29.48;;;;;;;3.90;92.93;98101.53;1734138;82;21134;-75
2021/12/31 04:21:37;;;;;;;64.82;27.35;;;;;;;3.90;93.24;98103.69;1734068;83;20970;-75
2021/12/31 04:24:08;;;;;;;59.75;27.82;;;;;;;3.89;92.92;98102.38;1749273;81;21419;-72
2021/12/31 04:26:33;;;;;;;60.60;27.93;;;;;;;3.88;93.15;98101.95;1766190;80;21039;-72
2021/12/31 04:28:59;;;;;;;61.45;28.50;;;;;;;3.82;92.88;98098.45;1759509;81;21023;-72
2021/12/31 04:31:26;;;;;;;58.00;26.65;;;;;;;3.82;93.20;98105.47;1756032;81;21062;-72
2021/12/31 04:33:52;;;;;;;56.05;25.62;;;;;;;3.77;93.22;98097.59;1744279;81;21445;-72
2021/12/31 04:36:19;;;;;;;51.83;24.72;;;;;;;3.73;92.98;98092.36;1734547;81;20948;-74
2021/12/31 04:38:45;;;;;;;51.90;24.27;;;;;;;3.70;92.95;98091.47;1734826;81;21033;-74
2021/12/31 04:41:11;;;;;;;47.13;22.82;;;;;;;3.67;92.75;98098.47;1734343;83;20997;-74
2021/12/31 04:43:38;;;;;;;48.48;23.90;;;;;;;3.63;92.88;98086.23;1734202;83;20978;-74
2021/12/31 04:46:04;;;;;;;43.58;21.95;;;;;;;3.58;93.15;98087.56;1734170;83;21029;-74
2021/12/31 04:48:30;;;;;;;49.42;23.02;;;;;;;3.53;93.23;98087.99;1734213;82;21041;-74
2021/12/31 04:50:57;;;;;;;50.03;24.25;;;;;;;3.49;92.95;98088.41;1734128;83;21005;-74
2021/12/31 04:53:23;;;;;;;45.67;24.55;;;;;;;3.46;93.17;98088.42;1763486;81;20947;-74
2021/12/31 04:55:50;;;;;;;49.70;23.95;;;;;;;3.43;93.22;98091.91;1764310;81;21009;-75
2021/12/31 04:58:17;;;;;;;53.35;26.48;;;;;;;3.42;93.39;98093.22;1764610;81;20958;-75
2021/12/31 05:00:43;;;;;;;55.35;26.62;;;;;;;3.39;92.93;98091.47;1768641;80;21413;-74
2021/12/31 05:03:11;;;;;;;60.45;27.73;;;;;;;3.36;92.81;98090.61;1780913;80;20993;-75
2021/12/31 05:05:38;;;;;;;56.77;27.00;;;;;;;3.32;92.81;98084.92;1772121;80;21005;-74
2021/12/31 05:08:05;;;;;;;60.95;29.85;;;;;;;3.29;93.50;98087.95;1749801;82;21020;-75
2021/12/31 05:10:32;;;;;;;58.85;29.42;;;;;;;3.27;93.46;98086.20;1754975;82;21492;-76
2021/12/31 05:13:02;;;;;;;61.13;29.40;;;;;;;3.26;94.41;98099.76;1749872;82;21461;-75
2021/12/31 05:15:34;;;;;;;56.63;29.45;;;;;;;3.24;94.29;98095.39;1749644;81;21017;-75
2021/12/31 05:17:58;;;;;;;56.75;28.27;;;;;;;3.24;93.91;98098.01;1749534;82;21021;-75
2021/12/31 05:20:25;;;;;;;49.93;25.92;;;;;;;3.23;93.96;98095.81;1769153;80;21091;-75
2021/12/31 05:22:52;;;;;;;49.83;25.20;;;;;;;3.24;93.96;98099.31;1780797;80;20998;-75
2021/12/31 05:25:22;;;;;;;45.55;23.38;;;;;;;3.24;94.09;98096.24;1780240;79;21080;-75
2021/12/31 05:27:49;;;;;;;42.33;22.95;;;;;;;3.24;94.02;98099.31;1816266;79;21064;-75
2021/12/31 05:30:16;;;;;;;46.20;23.20;;;;;;;3.24;93.99;98105.41;1816147;79;21065;-75
2021/12/31 05:32:42;;;;;;;43.55;22.52;;;;;;;3.24;94.13;98108.48;1804192;79;21001;-75
2021/12/31 05:35:09;;;;;;;42.17;23.47;;;;;;;3.26;93.83;98112.86;1775881;80;21625;-75
2021/12/31 05:37:36;;;;;;;42.13;23.42;;;;;;;3.25;94.34;98112.84;1780628;80;21052;-74
2021/12/31 05:40:04;;;;;;;42.35;23.00;;;;;;;3.26;94.04;98118.52;1780806;80;21017;-74
2021/12/31 05:42:31;;;;;;;46.28;22.67;;;;;;;3.29;94.45;98126.39;1759892;80;21075;-74
2021/12/31 05:44:58;;;;;;;46.75;23.70;;;;;;;3.33;93.80;98134.70;1750085;82;21004;-74
2021/12/31 05:47:24;;;;;;;43.48;23.10;;;;;;;3.38;93.94;98130.77;1749649;82;21449;-74
2021/12/31 05:49:51;;;;;;;42.80;22.22;;;;;;;3.41;93.69;98130.78;1749865;82;21039;-74
2021/12/31 05:52:18;;;;;;;42.83;23.18;;;;;;;3.43;93.95;98132.53;1749975;82;21076;-74
2021/12/31 05:54:45;;;;;;;38.55;21.30;;;;;;;3.49;94.40;98130.79;1765464;81;22110;-74
2021/12/31 05:57:11;;;;;;;42.03;20.85;;;;;;;3.54;94.19;98133.83;1774033;80;21053;-74
2021/12/31 05:59:38;;;;;;;34.80;20.65;;;;;;;3.59;94.07;98129.03;1773755;81;21029;-74
2021/12/31 06:02:05;;;;;;;36.03;20.15;;;;;;;3.62;94.13;98140.41;1767362;80;21423;-74
2021/12/31 06:04:31;;;;;;;33.38;18.65;;;;;;;3.67;94.19;98133.85;1764736;81;20966;-74
2021/12/31 06:06:57;;;;;;;34.43;19.48;;;;;;;3.73;94.34;98130.37;1764523;81;20962;-74
2021/12/31 06:09:24;;;;;;;34.73;19.12;;;;;;;3.76;94.06;98136.48;1768814;81;21016;-74
2021/12/31 06:11:51;;;;;;;34.48;18.65;;;;;;;3.80;94.11;98130.80;1767178;81;21018;-74
2021/12/31 06:14:17;;;;;;;39.00;19.52;;;;;;;3.83;94.07;98132.11;1768001;80;20981;-74
2021/12/31 06:16:46;;;;;;;30.95;18.52;;;;;;;3.85;94.38;98138.22;1756581;80;20977;-74
2021/12/31 06:19:14;;;;;;;35.58;19.98;;;;;;;3.87;94.47;98135.18;1739191;82;21001;-74
2021/12/31 06:21:43;;;;;;;34.65;19.80;;;;;;;3.89;94.35;98137.77;1739174;82;21049;-74
2021/12/31 06:24:10;;;;;;;37.58;19.27;;;;;;;3.90;94.21;98142.17;1739036;82;21020;-74
2021/12/31 06:26:37;;;;;;;35.85;19.32;;;;;;;3.91;94.37;98143.91;1777405;79;21383;-74
2021/12/31 06:29:04;;;;;;;44.15;22.70;;;;;;;3.91;94.27;98147.38;1778356;80;20993;-75
2021/12/31 06:31:31;;;;;;;42.85;21.35;;;;;;;3.91;94.00;98145.22;1769473;81;21071;-74
2021/12/31 06:33:57;;;;;;;45.23;22.35;;;;;;;3.88;93.91;98150.03;1778050;81;20981;-74
2021/12/31 06:36:24;;;;;;;38.25;21.87;;;;;;;3.85;94.08;98157.88;1750940;80;20985;-74
2021/12/31 06:38:51;;;;;;;41.63;22.10;;;;;;;3.78;93.95;98150.45;1742729;82;21501;-74
2021/12/31 06:41:20;;;;;;;40.90;21.85;;;;;;;3.73;93.64;98148.27;1739127;82;21473;-74
2021/12/31 06:43:46;;;;;;;38.98;20.65;;;;;;;3.69;93.58;98144.77;1769210;81;21036;-74
2021/12/31 06:46:13;;;;;;;39.13;20.68;;;;;;;3.68;93.77;98149.59;1769479;81;21005;-74
2021/12/31 06:48:39;;;;;;;47.10;22.87;;;;;;;3.66;93.62;98146.53;1769595;80;20970;-74
2021/12/31 06:51:06;;;;;;;39.92;21.70;;;;;;;3.62;93.89;98146.97;1769676;80;20974;-74
2021/12/31 06:53:32;;;;;;;43.35;22.25;;;;;;;3.59;94.68;98145.64;1769580;81;21391;-74
2021/12/31 06:55:59;;;;;;;48.10;22.73;;;;;;;3.56;93.91;98143.89;1758387;81;21048;-74
2021/12/31 06:58:25;;;;;;;44.30;23.57;;;;;;;3.54;93.93;98146.93;1738988;82;21005;-74
2021/12/31 07:00:52;;;;;;;47.65;24.20;;;;;;;3.52;94.00;98145.18;1739334;82;21454;-74
2021/12/31 07:03:19;;;;;;;46.48;22.85;;;;;;;3.53;94.18;98148.27;1737211;82;21065;-74
2021/12/31 07:05:45;;;;;;;45.55;23.62;;;;;;;3.53;94.35;98155.67;1734101;83;21060;-74
2021/12/31 07:08:13;;;;;;;44.65;23.02;;;;;;;3.50;94.18;98157.00;1733861;82;21458;-74
2021/12/31 07:10:40;;;;;;;45.35;23.02;;;;;;;3.49;94.25;98155.68;1755635;81;21010;-74
2021/12/31 07:13:11;;;;;;;48.30;23.35;;;;;;;3.46;94.29;98156.97;1764264;81;20954;-74
2021/12/31 07:15:44;;;;;;;44.93;22.13;;;;;;;3.43;94.91;98150.88;1764329;81;20998;-74
2021/12/31 07:18:11;;;;;;;48.52;21.95;;;;;;;3.43;94.54;98149.98;1771516;80;21013;-74
2021/12/31 07:20:38;;;;;;;47.38;22.67;;;;;;;3.43;94.69;98155.22;1764095;80;21021;-74
2021/12/31 07:23:07;;;;;;;50.38;23.65;;;;;;;3.42;94.34;98151.75;1762852;80;20997;-74
2021/12/31 07:25:35;;;;;;;45.33;22.90;;;;;;;3.45;94.26;98151.30;1737273;80;21025;-74
2021/12/31 07:28:02;;;;;;;47.83;24.27;;;;;;;3.46;94.54;98153.93;1734077;82;21395;-74
2021/12/31 07:30:29;;;;;;;47.35;23.73;;;;;;;3.50;94.38;98160.05;1734115;83;21382;-74
2021/12/31 07:32:56;;;;;;;46.23;22.62;;;;;;;3.52;94.64;98161.80;1734205;82;21008;-74
2021/12/31 07:35:24;;;;;;;47.73;24.77;;;;;;;3.55;94.65;98159.61;1734044;82;21450;-74
2021/12/31 07:37:54;;;;;;;40.40;21.95;;;;;;;3.58;94.59;98158.31;1746447;81;21419;-74
2021/12/31 07:40:41;;;;;;;48.20;24.52;;;;;;;3.59;95.23;98157.86;1759170;81;21045;-73
2021/12/31 07:43:09;;;;;;;44.60;22.70;;;;;;;3.61;94.77;98156.13;1764288;81;21077;-75
2021/12/31 07:45:35;;;;;;;50.15;24.25;;;;;;;3.61;94.97;98152.20;1764353;81;21065;-76
2021/12/31 07:48:03;;;;;;;48.10;23.92;;;;;;;3.63;94.79;98161.81;1764445;81;21364;-76
2021/12/31 07:50:31;;;;;;;47.55;23.75;;;;;;;3.65;94.74;98169.23;1764280;81;21056;-76
2021/12/31 07:52:58;;;;;;;44.50;22.75;;;;;;;3.68;95.06;98164.42;1736987;81;20992;-76
2021/12/31 07:55:25;;;;;;;55.65;24.45;;;;;;;3.68;94.76;98157.45;1740530;81;21024;-73
2021/12/31 07:57:51;;;;;;;43.65;21.33;;;;;;;3.69;94.74;98160.92;1756117;81;20974;-74
2021/12/31 08:00:18;;;;;;;50.98;23.38;;;;;;;3.69;94.68;98167.05;1748727;80;21494;-74
2021/12/31 08:02:44;;;;;;;48.08;23.65;;;;;;;3.72;94.23;98166.18;1737617;82;21006;-74
2021/12/31 08:05:11;;;;;;;46.50;23.42;;;;;;;3.76;94.33;98160.50;1740449;81;21005;-75
2021/12/31 08:07:37;;;;;;;46.55;23.40;;;;;;;3.81;94.47;98166.19;1739164;82;21013;-74
2021/12/31 08:10:05;;;;;;;39.45;20.32;;;;;;;3.87;94.68;98163.13;1738942;82;20993;-74
2021/12/31 08:12:35;;;;;;;43.30;21.00;;;;;;;3.89;94.48;98165.30;1738878;82;21025;-73
2021/12/31 08:15:04;;;;;;;36.45;19.90;;;;;;;3.94;94.46;98164.86;1738928;82;20978;-74
2021/12/31 08:17:31;;;;;;;38.30;20.00;;;;;;;3.96;94.42;98170.55;1739409;81;21024;-74
2021/12/31 08:19:58;;;;;;;39.10;19.40;;;;;;;4.01;94.62;98167.94;1739174;81;21053;-74
2021/12/31 08:22:24;;;;;;;38.20;20.77;;;;;;;4.00;94.42;98170.13;1738748;82;21021;-74
2021/12/31 08:24:51;;;;;;;34.03;19.82;;;;;;;4.06;94.72;98170.13;1751855;79;21004;-75
2021/12/31 08:27:18;;;;;;;35.60;19.35;;;;;;;4.15;94.71;98184.97;1805788;79;21392;-75
2021/12/31 08:29:45;;;;;;;35.75;19.40;;;;;;;4.20;94.42;98182.36;1801813;79;21554;-75
2021/12/31 08:32:12;;;;;;;33.48;18.73;;;;;;;4.23;94.37;98185.84;1774974;79;20982;-74
2021/12/31 08:34:38;;;;;;;34.25;18.80;;;;;;;4.27;94.38;98188.02;1769562;81;20978;-74
2021/12/31 08:37:05;;;;;;;32.67;18.80;;;;;;;4.31;94.35;98188.89;1769473;81;20994;-73
2021/12/31 08:39:32;;;;;;;34.88;20.48;;;;;;;4.37;94.39;98188.91;1769152;81;21002;-74
2021/12/31 08:42:00;;;;;;;36.38;19.67;;;;;;;4.41;94.13;98185.83;1769403;80;20993;-74
2021/12/31 08:44:28;;;;;;;39.63;19.60;;;;;;;4.45;94.49;98192.36;1767969;81;21052;-75
2021/12/31 08:46:55;;;;;;;36.58;19.42;;;;;;;4.49;94.55;98193.26;1739119;82;21013;-75
2021/12/31 08:49:23;;;;;;;37.88;20.88;;;;;;;4.51;94.22;98195.86;1739094;82;21021;-75
2021/12/31 08:51:50;;;;;;;37.13;20.45;;;;;;;4.48;94.06;98197.63;1738816;82;21073;-76
2021/12/31 08:54:17;;;;;;;40.90;22.65;;;;;;;4.46;93.82;98197.19;1739087;82;21383;-76
2021/12/31 08:56:43;;;;;;;38.33;20.40;;;;;;;4.43;93.88;98188.88;1739070;82;21057;-76
2021/12/31 08:59:10;;;;;;;38.92;21.57;;;;;;;4.38;93.63;98193.69;1746588;81;21048;-76
2021/12/31 09:01:37;;;;;;;40.33;21.27;;;;;;;4.33;93.56;98193.25;1769473;81;20997;-76
2021/12/31 09:04:04;;;;;;;33.65;19.48;;;;;;;4.31;93.43;98196.33;1769222;80;21025;-76
2021/12/31 09:06:31;;;;;;;38.70;20.90;;;;;;;4.28;93.35;98195.47;1769339;81;21060;-76
2021/12/31 09:08:57;;;;;;;35.50;20.08;;;;;;;4.22;93.03;98191.98;1767744;80;21005;-74
2021/12/31 09:11:24;;;;;;;37.33;19.70;;;;;;;4.16;93.53;98186.71;1739035;82;21434;-74
2021/12/31 09:13:53;;;;;;;33.88;20.55;;;;;;;4.14;93.88;98191.52;1743150;81;21017;-76
2021/12/31 09:16:19;;;;;;;34.15;18.00;;;;;;;4.13;93.85;98184.53;1755985;80;20962;-73
2021/12/31 09:18:45;;;;;;;35.15;18.95;;;;;;;4.11;93.52;98188.47;1761313;80;20989;-73
2021/12/31 09:21:11;;;;;;;35.15;20.23;;;;;;;4.12;93.86;98183.68;1764597;80;21427;-75
2021/12/31 09:23:38;;;;;;;37.15;22.35;;;;;;;4.13;93.93;98181.48;1771313;80;20966;-75
2021/12/31 09:26:05;;;;;;;36.30;18.30;;;;;;;4.13;94.07;98177.98;1769505;80;20942;-74
2021/12/31 09:28:31;;;;;;;29.95;16.65;;;;;;;4.12;93.86;98179.75;1719676;83;21027;-74
2021/12/31 09:31:00;;;;;;;32.63;17.32;;;;;;;4.12;93.80;98177.55;1705605;82;20968;-75
2021/12/31 09:33:26;;;;;;;30.55;18.07;;;;;;;4.09;93.96;98165.31;1682065;84;20983;-74
2021/12/31 09:35:52;;;;;;;32.67;18.02;;;;;;;4.07;94.01;98169.23;1738699;81;21040;-74
2021/12/31 09:38:19;;;;;;;33.78;17.67;;;;;;;4.05;94.01;98160.52;1739825;81;20986;-73
2021/12/31 09:40:45;;;;;;;33.53;18.00;;;;;;;4.05;94.11;98161.83;1739071;82;21545;-74
2021/12/31 09:43:12;;;;;;;33.28;18.20;;;;;;;4.01;94.37;98153.94;1768559;81;21006;-74
2021/12/31 09:45:42;;;;;;;31.75;17.45;;;;;;;4.00;94.48;98160.95;1747950;81;20981;-73
2021/12/31 09:48:23;;;;;;;31.40;17.48;;;;;;;4.01;94.22;98152.62;1747217;80;21446;-74
2021/12/31 09:50:56;;;;;;;32.03;16.93;;;;;;;4.01;94.21;98158.76;1739074;82;21013;-71
2021/12/31 09:53:26;;;;;;;32.07;17.17;;;;;;;4.02;94.26;98158.34;1739377;82;20977;-71
2021/12/31 09:55:56;;;;;;;27.75;16.57;;;;;;;4.01;94.29;98156.14;1743102;81;21292;-71
2021/12/31 09:58:25;;;;;;;32.53;16.52;;;;;;;4.02;94.39;98153.09;1753714;81;21454;-71
2021/12/31 10:00:57;;;;;;;28.95;16.27;;;;;;;4.03;94.85;98149.59;1793224;80;20982;-71
2021/12/31 10:03:28;;;;;;;29.98;17.73;;;;;;;4.03;94.53;98140.41;1755988;79;21005;-71
2021/12/31 10:05:59;;;;;;;38.95;24.90;;;;;;;4.05;94.59;98134.70;1805752;79;21426;-71
2021/12/31 10:08:43;;;;;;;34.55;19.90;;;;;;;4.07;94.44;98127.73;1812538;79;21040;-72
2021/12/31 10:11:24;;;;;;;32.50;19.40;;;;;;;4.09;94.98;98118.98;1763841;78;21255;-71
2021/12/31 10:14:01;;;;;;;34.53;16.95;;;;;;;4.17;94.27;98121.59;1749732;81;21016;-71
2021/12/31 10:16:39;;;;;;;31.68;17.70;;;;;;;4.18;94.37;98116.77;1769657;80;21103;-72
2021/12/31 10:19:16;;;;;;;31.05;17.90;;;;;;;4.22;94.21;98111.08;1775892;80;21009;-72
2021/12/31 10:21:50;;;;;;;34.83;18.27;;;;;;;4.21;93.96;98114.16;1775865;81;21009;-72
2021/12/31 10:24:28;;;;;;;35.98;18.80;;;;;;;4.28;93.95;98119.38;1775768;80;21033;-72
2021/12/31 10:27:16;;;;;;;36.17;18.73;;;;;;;4.31;93.78;98118.05;1774468;80;20986;-72
2021/12/31 10:30:03;;;;;;;26.60;16.75;;;;;;;4.34;93.75;98126.80;1772478;80;20995;-71
2021/12/31 10:32:35;;;;;;;26.17;15.98;;;;;;;4.38;93.91;98122.41;1776712;79;21410;-72
2021/12/31 10:35:17;;;;;;;28.57;16.55;;;;;;;4.43;93.86;98125.02;1765803;80;21385;-72
2021/12/31 10:37:57;;;;;;;28.15;15.50;;;;;;;4.49;93.93;98132.89;1767051;80;21032;-71
2021/12/31 10:40:36;;;;;;;31.90;17.50;;;;;;;4.54;93.91;98136.80;1758140;80;21426;-71
2021/12/31 10:43:23;;;;;;;26.07;16.40;;;;;;;4.55;94.01;98139.43;1769947;79;20946;-71
2021/12/31 10:46:11;;;;;;;32.93;17.32;;;;;;;4.63;94.38;98149.91;1804016;79;21529;-72
2021/12/31 10:48:45;;;;;;;33.80;18.70;;;;;;;4.71;94.33;98145.52;1772916;79;21383;-70
2021/12/31 10:51:15;;;;;;;33.98;19.95;;;;;;;4.80;94.49;98145.91;1768371;80;21009;-70
2021/12/31 10:53:51;;;;;;;35.68;19.70;;;;;;;4.83;93.86;98138.03;1750455;80;21438;-71
2021/12/31 10:56:14;;;;;;;36.85;20.75;;;;;;;4.84;93.83;98144.13;1748661;82;21032;-71
2021/12/31 10:58:44;;;;;;;38.08;20.62;;;;;;;4.86;94.13;98144.56;1751588;79;21000;-70
2021/12/31 11:01:14;;;;;;;33.45;18.77;;;;;;;4.86;93.58;98144.56;1755806;80;21072;-72
2021/12/31 11:03:42;;;;;;;33.15;17.77;;;;;;;4.84;93.71;98145.02;1761816;80;21013;-72
2021/12/31 11:06:13;;;;;;;34.98;19.50;;;;;;;4.83;93.51;98148.53;1732495;83;21093;-72
2021/12/31 11:08:45;;;;;;;34.08;19.32;;;;;;;4.79;93.25;98154.67;1700417;82;20977;-71
2021/12/31 11:11:15;;;;;;;34.05;18.92;;;;;;;4.74;93.21;98159.92;1690703;84;21014;-71
2021/12/31 11:13:45;;;;;;;33.85;19.55;;;;;;;4.70;93.40;98151.61;1689271;84;21486;-72
2021/12/31 11:16:13;;;;;;;37.93;21.57;;;;;;;4.71;93.69;98145.94;1688806;84;21074;-72
2021/12/31 11:18:41;;;;;;;42.15;21.30;;;;;;;4.68;93.37;98147.25;1681303;85;21066;-72
2021/12/31 11:21:09;;;;;;;39.15;20.68;;;;;;;4.67;93.51;98145.51;1698106;82;20960;-72
2021/12/31 11:23:37;;;;;;;34.48;18.70;;;;;;;4.64;93.59;98146.39;1686098;82;21021;-73
2021/12/31 11:26:07;;;;;;;31.60;18.70;;;;;;;4.57;93.54;98144.22;1694817;83;21074;-72
2021/12/31 11:28:43;;;;;;;30.77;17.60;;;;;;;4.54;93.70;98136.80;1748773;82;21087;-72
2021/12/31 11:31:23;;;;;;;34.80;17.52;;;;;;;4.46;94.00;98138.14;1762559;80;21692;-71
2021/12/31 11:34:05;;;;;;;32.65;15.72;;;;;;;4.35;94.50;98133.80;1713493;83;21439;-72